Station Historical Data
Daily Summary for September 14, 2017 Units:  Both    English   Metric
« Previous Day
Next Day »
Daily Weekly Monthly Yearly Custom
  High: Low: Average:
Temperature: TemperatureC °F /  -17.8 °C 10.0 °F /  -12.2 °C 13.5 °F /  -10.3 °C
Dew Point: DewpointC °F /  -17.8 °C 9.1 °F /  -12.7 °C 12.7 °F /  -10.7 °C
Humidity: Humidity % 83 % 95 %
Wind Speed: WindSpeedKMH mph /  0 km/h - 2.4 mph /  3.9 km/h
Wind Gust: WindSpeedGustKMH mph /  0 km/h - -
Wind:- - South
Pressure: PressurehPa in /  0 hPa -3386.0 in /  -114650 hPa -
Precipitation: 0.0 in /  0 mm    
Historical Graphs
 
 
Tabular Data for September 14, 2017
Time Temperature Dew Point Pressure Wind Wind Speed Wind Gust Humidity Rainfall Rate (Hourly) solar Conditions
TemperatureC °F /  -17.8 °C DewpointC °F /  -17.8 °C PressurehPa in /  0 hPa Calm     Humidity % HourlyPrecipMM in /  0 mm SoftwareType W/m2 Conditions
00:02 15.5 °F /  -9.2 °C 15.0 °F /  -9.4 °C 1008.0 in /  34130.9 hPa Calm   4.7 mph /  7.6 km/h 97 % 0.0 in /  0 mm meteobridge W/m2
00:08 15.5 °F /  -9.2 °C 15.0 °F /  -9.4 °C 1008.0 in /  34130.9 hPa SSW 4.0 mph /  6.4 km/h 4.0 mph /  6.4 km/h 97 % 0.0 in /  0 mm meteobridge W/m2
00:13 15.5 °F /  -9.2 °C 14.9 °F /  -9.5 °C 1008.0 in /  34130.9 hPa SSE 4.0 mph /  6.4 km/h 4.7 mph /  7.6 km/h 96 % 0.0 in /  0 mm meteobridge W/m2
00:23 15.4 °F /  -9.2 °C 14.8 °F /  -9.6 °C 1008.0 in /  34130.9 hPa SSW 1.8 mph /  2.9 km/h 2.6 mph /  4.2 km/h 96 % 0.0 in /  0 mm meteobridge W/m2
00:30 15.4 °F /  -9.2 °C 14.9 °F /  -9.5 °C 1008.0 in /  34130.9 hPa SSW 5.8 mph /  9.3 km/h 5.8 mph /  9.3 km/h 97 % 0.0 in /  0 mm meteobridge W/m2
00:36 15.2 °F /  -9.3 °C 14.7 °F /  -9.6 °C 1008.0 in /  34130.9 hPa SSE 2.6 mph /  4.2 km/h 2.6 mph /  4.2 km/h 97 % 0.0 in /  0 mm meteobridge W/m2
00:43 15.1 °F /  -9.4 °C 14.8 °F /  -9.6 °C 1007.0 in /  34097 hPa Calm   2.1 mph /  3.4 km/h 98 % 0.0 in /  0 mm meteobridge W/m2
00:49 15.1 °F /  -9.4 °C 14.8 °F /  -9.6 °C 1007.0 in /  34097 hPa SSW 4.0 mph /  6.4 km/h 4.0 mph /  6.4 km/h 98 % 0.0 in /  0 mm meteobridge W/m2
00:55 15.0 °F /  -9.4 °C 14.7 °F /  -9.6 °C 1008.0 in /  34130.9 hPa Calm   4.0 mph /  6.4 km/h 98 % 0.0 in /  0 mm meteobridge W/m2
01:02 15.0 °F /  -9.4 °C 14.8 °F /  -9.6 °C 1008.0 in /  34130.9 hPa SSE 1.4 mph /  2.3 km/h 7.6 mph /  12.2 km/h 99 % 0.0 in /  0 mm meteobridge W/m2
01:09 15.0 °F /  -9.4 °C 14.7 °F /  -9.6 °C 1008.0 in /  34130.9 hPa Calm     98 % 0.0 in /  0 mm meteobridge W/m2
01:15 14.9 °F /  -9.5 °C 14.6 °F /  -9.7 °C 1008.0 in /  34130.9 hPa ESE 4.7 mph /  7.6 km/h 4.7 mph /  7.6 km/h 98 % 0.0 in /  0 mm meteobridge W/m2
01:21 14.9 °F /  -9.5 °C 14.6 °F /  -9.7 °C 1008.0 in /  34130.9 hPa Calm     98 % 0.0 in /  0 mm meteobridge W/m2
01:27 14.9 °F /  -9.5 °C 14.6 °F /  -9.7 °C 1008.0 in /  34130.9 hPa Calm   4.7 mph /  7.6 km/h 98 % 0.0 in /  0 mm meteobridge W/m2
01:34 14.9 °F /  -9.5 °C 14.6 °F /  -9.7 °C 1008.0 in /  34130.9 hPa SSW 5.8 mph /  9.3 km/h 5.8 mph /  9.3 km/h 98 % 0.0 in /  0 mm meteobridge W/m2
01:40 14.8 °F /  -9.6 °C 14.3 °F /  -9.8 °C 1008.0 in /  34130.9 hPa ESE 2.1 mph /  3.4 km/h 5.0 mph /  8 km/h 97 % 0.0 in /  0 mm meteobridge W/m2
01:47 14.8 °F /  -9.6 °C 14.3 °F /  -9.8 °C 1008.0 in /  34130.9 hPa ESE 1.4 mph /  2.3 km/h 1.4 mph /  2.3 km/h 97 % 0.0 in /  0 mm meteobridge W/m2
01:53 14.8 °F /  -9.6 °C 14.3 °F /  -9.8 °C 1008.0 in /  34130.9 hPa Calm     97 % 0.0 in /  0 mm meteobridge W/m2
02:00 14.7 °F /  -9.6 °C 14.2 °F /  -9.9 °C 1008.0 in /  34130.9 hPa Calm     97 % 0.0 in /  0 mm meteobridge W/m2
02:06 14.7 °F /  -9.6 °C 14.2 °F /  -9.9 °C 1008.0 in /  34130.9 hPa Calm   4.0 mph /  6.4 km/h 97 % 0.0 in /  0 mm meteobridge W/m2
02:13 14.7 °F /  -9.6 °C 14.2 °F /  -9.9 °C 1007.0 in /  34097 hPa NNE 1.4 mph /  2.3 km/h 3.5 mph /  5.6 km/h 97 % 0.0 in /  0 mm meteobridge W/m2
02:19 14.6 °F /  -9.7 °C 14.1 °F /  -9.9 °C 1007.0 in /  34097 hPa SSW 4.0 mph /  6.4 km/h 4.0 mph /  6.4 km/h 97 % 0.0 in /  0 mm meteobridge W/m2
02:26 14.7 °F /  -9.6 °C 14.2 °F /  -9.9 °C 1007.0 in /  34097 hPa Calm     97 % 0.0 in /  0 mm meteobridge W/m2
02:32 14.7 °F /  -9.6 °C 14.2 °F /  -9.9 °C 1007.0 in /  34097 hPa Calm     97 % 0.0 in /  0 mm meteobridge W/m2
02:39 14.7 °F /  -9.6 °C 14.4 °F /  -9.8 °C 1007.0 in /  34097 hPa SSE 2.6 mph /  4.2 km/h 2.6 mph /  4.2 km/h 98 % 0.0 in /  0 mm meteobridge W/m2
02:45 14.6 °F /  -9.7 °C 14.3 °F /  -9.8 °C 1007.0 in /  34097 hPa Calm   1.4 mph /  2.3 km/h 98 % 0.0 in /  0 mm meteobridge W/m2
02:51 14.5 °F /  -9.7 °C 14.2 °F /  -9.9 °C 1007.0 in /  34097 hPa Calm     98 % 0.0 in /  0 mm meteobridge W/m2
02:56 14.5 °F /  -9.7 °C 14.3 °F /  -9.8 °C 1007.0 in /  34097 hPa Calm     99 % 0.0 in /  0 mm meteobridge W/m2
03:03 14.4 °F /  -9.8 °C 14.2 °F /  -9.9 °C 1007.0 in /  34097 hPa Calm     99 % 0.0 in /  0 mm meteobridge W/m2
03:09 14.4 °F /  -9.8 °C 14.2 °F /  -9.9 °C 1007.0 in /  34097 hPa Calm     99 % 0.0 in /  0 mm meteobridge W/m2
03:15 14.4 °F /  -9.8 °C 14.2 °F /  -9.9 °C 1007.0 in /  34097 hPa Calm     99 % 0.0 in /  0 mm meteobridge W/m2
03:22 14.4 °F /  -9.8 °C 14.2 °F /  -9.9 °C 1007.0 in /  34097 hPa Calm     99 % 0.0 in /  0 mm meteobridge W/m2
03:28 14.4 °F /  -9.8 °C 14.2 °F /  -9.9 °C 1006.0 in /  34063.2 hPa Calm     99 % 0.0 in /  0 mm meteobridge W/m2
03:34 14.4 °F /  -9.8 °C 14.2 °F /  -9.9 °C 1006.0 in /  34063.2 hPa Calm     99 % 0.0 in /  0 mm meteobridge W/m2
03:40 14.3 °F /  -9.8 °C 14.1 °F /  -9.9 °C 1006.0 in /  34063.2 hPa Calm     99 % 0.0 in /  0 mm meteobridge W/m2
03:47 14.3 °F /  -9.8 °C 14.1 °F /  -9.9 °C 1006.0 in /  34063.2 hPa Calm     99 % 0.0 in /  0 mm meteobridge W/m2
03:52 14.1 °F /  -9.9 °C 14.1 °F /  -9.9 °C 1006.0 in /  34063.2 hPa Calm     100 % 0.0 in /  0 mm meteobridge W/m2
03:58 14.0 °F /  -10 °C 14.0 °F /  -10 °C 1006.0 in /  34063.2 hPa Calm     100 % 0.0 in /  0 mm meteobridge W/m2
04:04 13.9 °F /  -10.1 °C 13.9 °F /  -10.1 °C 1006.0 in /  34063.2 hPa Calm     100 % 0.0 in /  0 mm meteobridge W/m2
04:11 13.7 °F /  -10.2 °C 13.7 °F /  -10.2 °C 1005.0 in /  34029.3 hPa Calm   -1607.4 mph /  -2586.8 km/h 100 % 0.0 in /  0 mm meteobridge W/m2
04:17 13.5 °F /  -10.3 °C 13.5 °F /  -10.3 °C 1005.0 in /  34029.3 hPa Calm     100 % 0.0 in /  0 mm meteobridge W/m2
04:23 13.5 °F /  -10.3 °C 13.5 °F /  -10.3 °C 1005.0 in /  34029.3 hPa Calm     100 % 0.0 in /  0 mm meteobridge W/m2
04:30 13.5 °F /  -10.3 °C 13.5 °F /  -10.3 °C 1005.0 in /  34029.3 hPa Calm     100 % 0.0 in /  0 mm meteobridge W/m2
04:36 13.5 °F /  -10.3 °C 13.5 °F /  -10.3 °C 1005.0 in /  34029.3 hPa Calm     100 % 0.0 in /  0 mm meteobridge W/m2
04:43 13.5 °F /  -10.3 °C 13.5 °F /  -10.3 °C 1005.0 in /  34029.3 hPa Calm     100 % 0.0 in /  0 mm meteobridge W/m2
04:49 13.5 °F /  -10.3 °C 13.5 °F /  -10.3 °C 1005.0 in /  34029.3 hPa Calm     100 % 0.0 in /  0 mm meteobridge W/m2
04:55 13.8 °F /  -10.1 °C 13.8 °F /  -10.1 °C 1006.0 in /  34063.2 hPa Calm     100 % 0.0 in /  0 mm meteobridge W/m2
05:02 14.0 °F /  -10 °C 14.0 °F /  -10 °C 1006.0 in /  34063.2 hPa ENE 1.4 mph /  2.3 km/h 1.4 mph /  2.3 km/h 100 % 0.0 in /  0 mm meteobridge W/m2
05:08 14.0 °F /  -10 °C 14.0 °F /  -10 °C 1006.0 in /  34063.2 hPa Calm     100 % 0.0 in /  0 mm meteobridge W/m2
05:13 14.1 °F /  -9.9 °C 14.1 °F /  -9.9 °C 1006.0 in /  34063.2 hPa Calm     100 % 0.0 in /  0 mm meteobridge W/m2
05:22 14.2 °F /  -9.9 °C 14.2 °F /  -9.9 °C 1006.0 in /  34063.2 hPa Calm     100 % 0.0 in /  0 mm meteobridge W/m2
05:26 14.2 °F /  -9.9 °C 14.2 °F /  -9.9 °C 1006.0 in /  34063.2 hPa Calm     100 % 0.0 in /  0 mm meteobridge W/m2
05:32 14.1 °F /  -9.9 °C 14.1 °F /  -9.9 °C 1006.0 in /  34063.2 hPa Calm     100 % 0.0 in /  0 mm meteobridge W/m2
05:38 14.2 °F /  -9.9 °C 14.2 °F /  -9.9 °C 1006.0 in /  34063.2 hPa Calm     100 % 0.0 in /  0 mm meteobridge W/m2
05:45 14.2 °F /  -9.9 °C 14.2 °F /  -9.9 °C 1006.0 in /  34063.2 hPa Calm     100 % 0.0 in /  0 mm meteobridge W/m2
05:47 14.2 °F /  -9.9 °C 14.2 °F /  -9.9 °C 1006.0 in /  34063.2 hPa Calm     100 % 0.0 in /  0 mm meteobridge W/m2
05:53 14.2 °F /  -9.9 °C 14.2 °F /  -9.9 °C 1006.0 in /  34063.2 hPa Calm     100 % 0.0 in /  0 mm meteobridge W/m2
06:00 14.2 °F /  -9.9 °C 14.2 °F /  -9.9 °C 1006.0 in /  34063.2 hPa Calm     100 % 0.0 in /  0 mm meteobridge W/m2
06:06 14.2 °F /  -9.9 °C 14.2 °F /  -9.9 °C 1006.0 in /  34063.2 hPa SE 5.0 mph /  8 km/h -1607.4 mph /  -2586.8 km/h 100 % 0.0 in /  0 mm meteobridge W/m2
06:13 14.2 °F /  -9.9 °C 14.2 °F /  -9.9 °C 1006.0 in /  34063.2 hPa Calm   4.3 mph /  6.9 km/h 100 % 0.0 in /  0 mm meteobridge W/m2
06:19 14.2 °F /  -9.9 °C 14.2 °F /  -9.9 °C 1006.0 in /  34063.2 hPa Calm     100 % 0.0 in /  0 mm meteobridge W/m2
06:25 14.3 °F /  -9.8 °C 14.3 °F /  -9.8 °C 1006.0 in /  34063.2 hPa Calm     100 % 0.0 in /  0 mm meteobridge W/m2
06:32 14.2 °F /  -9.9 °C 14.2 °F /  -9.9 °C 1006.0 in /  34063.2 hPa Calm     100 % 0.0 in /  0 mm meteobridge W/m2
06:38 14.2 °F /  -9.9 °C 14.2 °F /  -9.9 °C 1006.0 in /  34063.2 hPa Calm   1.4 mph /  2.3 km/h 100 % 0.0 in /  0 mm meteobridge W/m2
06:45 14.2 °F /  -9.9 °C 14.2 °F /  -9.9 °C 1006.0 in /  34063.2 hPa SSE 1.4 mph /  2.3 km/h 1.4 mph /  2.3 km/h 100 % 0.0 in /  0 mm meteobridge W/m2
06:51 14.2 °F /  -9.9 °C 14.2 °F /  -9.9 °C 1006.0 in /  34063.2 hPa Calm     100 % 0.0 in /  0 mm meteobridge W/m2
06:58 14.2 °F /  -9.9 °C 14.2 °F /  -9.9 °C 1006.0 in /  34063.2 hPa Calm     100 % 0.0 in /  0 mm meteobridge W/m2
07:04 14.2 °F /  -9.9 °C 14.2 °F /  -9.9 °C 1006.0 in /  34063.2 hPa Calm     100 % 0.0 in /  0 mm meteobridge W/m2
07:11 14.2 °F /  -9.9 °C 14.2 °F /  -9.9 °C 1006.0 in /  34063.2 hPa Calm     100 % 0.0 in /  0 mm meteobridge W/m2
07:17 14.2 °F /  -9.9 °C 14.2 °F /  -9.9 °C 1006.0 in /  34063.2 hPa Calm     100 % 0.0 in /  0 mm meteobridge W/m2
07:23 14.3 °F /  -9.8 °C 14.3 °F /  -9.8 °C 1006.0 in /  34063.2 hPa Calm   -1607.4 mph /  -2586.8 km/h 100 % 0.0 in /  0 mm meteobridge W/m2
07:30 14.3 °F /  -9.8 °C 14.3 °F /  -9.8 °C 1006.0 in /  34063.2 hPa WSW 4.3 mph /  6.9 km/h 4.3 mph /  6.9 km/h 100 % 0.0 in /  0 mm meteobridge W/m2
07:36 14.3 °F /  -9.8 °C 14.3 °F /  -9.8 °C 1006.0 in /  34063.2 hPa Calm   3.5 mph /  5.6 km/h 100 % 0.0 in /  0 mm meteobridge W/m2
07:42 14.4 °F /  -9.8 °C 14.4 °F /  -9.8 °C 1006.0 in /  34063.2 hPa Calm     100 % 0.0 in /  0 mm meteobridge W/m2
07:49 14.4 °F /  -9.8 °C 14.4 °F /  -9.8 °C 1006.0 in /  34063.2 hPa Calm     100 % 0.0 in /  0 mm meteobridge W/m2
07:56 14.5 °F /  -9.7 °C 14.5 °F /  -9.7 °C 1007.0 in /  34097 hPa Calm     100 % 0.0 in /  0 mm meteobridge W/m2
08:02 14.5 °F /  -9.7 °C 14.5 °F /  -9.7 °C 1007.0 in /  34097 hPa Calm     100 % 0.0 in /  0 mm meteobridge W/m2
08:08 14.5 °F /  -9.7 °C 14.5 °F /  -9.7 °C 1007.0 in /  34097 hPa Calm   -1607.4 mph /  -2586.8 km/h 100 % 0.0 in /  0 mm meteobridge W/m2
08:14 14.5 °F /  -9.7 °C 14.5 °F /  -9.7 °C 1007.0 in /  34097 hPa Calm     100 % 0.0 in /  0 mm meteobridge W/m2
08:20 14.4 °F /  -9.8 °C 14.4 °F /  -9.8 °C 1007.0 in /  34097 hPa Calm     100 % 0.0 in /  0 mm meteobridge W/m2
08:26 14.4 °F /  -9.8 °C 14.4 °F /  -9.8 °C 1007.0 in /  34097 hPa Calm   -1607.4 mph /  -2586.8 km/h 100 % 0.0 in /  0 mm meteobridge W/m2
08:32 14.5 °F /  -9.7 °C 14.5 °F /  -9.7 °C 1007.0 in /  34097 hPa SW 1.8 mph /  2.9 km/h 1.8 mph /  2.9 km/h 100 % 0.0 in /  0 mm meteobridge W/m2
08:37 14.4 °F /  -9.8 °C 14.4 °F /  -9.8 °C 1007.0 in /  34097 hPa Calm     100 % 0.0 in /  0 mm meteobridge W/m2
08:38 14.4 °F /  -9.8 °C 14.4 °F /  -9.8 °C 1007.0 in /  34097 hPa Calm     100 % 0.0 in /  0 mm meteobridge W/m2
08:43 14.4 °F /  -9.8 °C 14.4 °F /  -9.8 °C 1007.0 in /  34097 hPa SSW 1.4 mph /  2.3 km/h 1.4 mph /  2.3 km/h 100 % 0.0 in /  0 mm meteobridge W/m2
08:48 14.4 °F /  -9.8 °C 14.4 °F /  -9.8 °C 1007.0 in /  34097 hPa SSE 3.5 mph /  5.6 km/h 5.0 mph /  8 km/h 100 % 0.0 in /  0 mm meteobridge W/m2
08:53 14.4 °F /  -9.8 °C 14.4 °F /  -9.8 °C 1007.0 in /  34097 hPa Calm     100 % 0.0 in /  0 mm meteobridge W/m2
08:56 14.5 °F /  -9.7 °C 14.5 °F /  -9.7 °C 1007.0 in /  34097 hPa Calm     100 % 0.0 in /  0 mm meteobridge W/m2
08:59 14.4 °F /  -9.8 °C 14.4 °F /  -9.8 °C 1007.0 in /  34097 hPa Calm   4.0 mph /  6.4 km/h 100 % 0.0 in /  0 mm meteobridge W/m2
09:09 14.2 °F /  -9.9 °C 14.2 °F /  -9.9 °C 1007.0 in /  34097 hPa SSE 1.4 mph /  2.3 km/h 2.1 mph /  3.4 km/h 100 % 0.0 in /  0 mm meteobridge W/m2
09:15 14.1 °F /  -9.9 °C 14.1 °F /  -9.9 °C 1007.0 in /  34097 hPa SSE 7.6 mph /  12.2 km/h 7.6 mph /  12.2 km/h 100 % 0.0 in /  0 mm meteobridge W/m2
09:21 14.2 °F /  -9.9 °C 14.0 °F /  -10 °C 1007.0 in /  34097 hPa Calm     99 % 0.0 in /  0 mm meteobridge W/m2
09:27 14.2 °F /  -9.9 °C 14.0 °F /  -10 °C 1007.0 in /  34097 hPa SSE 2.1 mph /  3.4 km/h 2.1 mph /  3.4 km/h 99 % 0.0 in /  0 mm meteobridge W/m2
09:34 14.2 °F /  -9.9 °C 14.0 °F /  -10 °C 1007.0 in /  34097 hPa SSW 1.8 mph /  2.9 km/h 1.8 mph /  2.9 km/h 99 % 0.0 in /  0 mm meteobridge W/m2
09:41 14.2 °F /  -9.9 °C 14.0 °F /  -10 °C 1007.0 in /  34097 hPa SSE 3.2 mph /  5.1 km/h 3.2 mph /  5.1 km/h 99 % 0.0 in /  0 mm meteobridge W/m2
09:47 14.2 °F /  -9.9 °C 14.0 °F /  -10 °C 1007.0 in /  34097 hPa Calm     99 % 0.0 in /  0 mm meteobridge W/m2
09:52 14.3 °F /  -9.8 °C 14.1 °F /  -9.9 °C 1007.0 in /  34097 hPa ESE 2.6 mph /  4.2 km/h 2.6 mph /  4.2 km/h 99 % 0.0 in /  0 mm meteobridge W/m2
09:59 14.3 °F /  -9.8 °C 14.1 °F /  -9.9 °C 1007.0 in /  34097 hPa SW 2.1 mph /  3.4 km/h 2.1 mph /  3.4 km/h 99 % 0.0 in /  0 mm meteobridge W/m2
10:05 14.3 °F /  -9.8 °C 14.1 °F /  -9.9 °C 1007.0 in /  34097 hPa Calm   1.4 mph /  2.3 km/h 99 % 0.0 in /  0 mm meteobridge W/m2
10:11 14.4 °F /  -9.8 °C 14.1 °F /  -9.9 °C 1007.0 in /  34097 hPa Calm     98 % 0.0 in /  0 mm meteobridge W/m2
10:17 14.3 °F /  -9.8 °C 13.8 °F /  -10.1 °C 1007.0 in /  34097 hPa South 9.3 mph /  15 km/h 9.3 mph /  15 km/h 97 % 0.0 in /  0 mm meteobridge W/m2
10:23 14.3 °F /  -9.8 °C 13.8 °F /  -10.1 °C 1007.0 in /  34097 hPa Calm     97 % 0.0 in /  0 mm meteobridge W/m2
10:29 14.3 °F /  -9.8 °C 13.7 °F /  -10.2 °C 1007.0 in /  34097 hPa Calm     96 % 0.0 in /  0 mm meteobridge W/m2
10:35 14.3 °F /  -9.8 °C 13.7 °F /  -10.2 °C 1007.0 in /  34097 hPa Calm     96 % 0.0 in /  0 mm meteobridge W/m2
10:41 14.2 °F /  -9.9 °C 13.6 °F /  -10.2 °C 1007.0 in /  34097 hPa SE 1.8 mph /  2.9 km/h 1.8 mph /  2.9 km/h 96 % 0.0 in /  0 mm meteobridge W/m2
10:47 14.1 °F /  -9.9 °C 13.3 °F /  -10.4 °C 1007.0 in /  34097 hPa ESE 3.5 mph /  5.6 km/h 3.5 mph /  5.6 km/h 95 % 0.0 in /  0 mm meteobridge W/m2
10:53 14.1 °F /  -9.9 °C 13.3 °F /  -10.4 °C 1007.0 in /  34097 hPa SSE 6.4 mph /  10.3 km/h 6.4 mph /  10.3 km/h 95 % 0.0 in /  0 mm meteobridge W/m2
10:59 14.1 °F /  -9.9 °C 13.3 °F /  -10.4 °C 1007.0 in /  34097 hPa SSE 5.8 mph /  9.3 km/h 5.8 mph /  9.3 km/h 95 % 0.0 in /  0 mm meteobridge W/m2
11:05 14.1 °F /  -9.9 °C 13.3 °F /  -10.4 °C 1007.0 in /  34097 hPa Calm   2.6 mph /  4.2 km/h 95 % 0.0 in /  0 mm meteobridge W/m2
11:13 14.3 °F /  -9.8 °C 13.2 °F /  -10.4 °C 1007.0 in /  34097 hPa Calm     93 % 0.0 in /  0 mm meteobridge W/m2
11:19 14.3 °F /  -9.8 °C 13.2 °F /  -10.4 °C 1007.0 in /  34097 hPa SSW 10.5 mph /  16.9 km/h 10.5 mph /  16.9 km/h 93 % 0.0 in /  0 mm meteobridge W/m2
11:25 14.5 °F /  -9.7 °C 13.2 °F /  -10.4 °C 1007.0 in /  34097 hPa South 5.8 mph /  9.3 km/h 5.8 mph /  9.3 km/h 92 % 0.0 in /  0 mm meteobridge W/m2
11:31 14.5 °F /  -9.7 °C 13.0 °F /  -10.6 °C 1007.0 in /  34097 hPa ESE 7.6 mph /  12.2 km/h 7.6 mph /  12.2 km/h 91 % 0.0 in /  0 mm meteobridge W/m2
11:37 14.5 °F /  -9.7 °C 13.0 °F /  -10.6 °C 1007.0 in /  34097 hPa South 8.7 mph /  14 km/h 8.7 mph /  14 km/h 91 % 0.0 in /  0 mm meteobridge W/m2
11:43 14.5 °F /  -9.7 °C 13.0 °F /  -10.6 °C 1008.0 in /  34130.9 hPa SSW 7.6 mph /  12.2 km/h 7.6 mph /  12.2 km/h 91 % 0.0 in /  0 mm meteobridge W/m2
11:49 14.9 °F /  -9.5 °C 13.4 °F /  -10.3 °C 1008.0 in /  34130.9 hPa NNW 5.0 mph /  8 km/h 5.0 mph /  8 km/h 91 % 0.0 in /  0 mm meteobridge W/m2
11:55 14.9 °F /  -9.5 °C 13.3 °F /  -10.4 °C 1008.0 in /  34130.9 hPa SSE 5.8 mph /  9.3 km/h 5.8 mph /  9.3 km/h 90 % 0.0 in /  0 mm meteobridge W/m2
12:01 15.2 °F /  -9.3 °C 13.4 °F /  -10.3 °C 1008.0 in /  34130.9 hPa Calm     89 % 0.0 in /  0 mm meteobridge W/m2
12:07 15.5 °F /  -9.2 °C 13.7 °F /  -10.2 °C 1008.0 in /  34130.9 hPa SSW 4.3 mph /  6.9 km/h 5.8 mph /  9.3 km/h 89 % 0.0 in /  0 mm meteobridge W/m2
12:13 15.8 °F /  -9 °C 14.0 °F /  -10 °C 1008.0 in /  34130.9 hPa SSE 2.1 mph /  3.4 km/h 2.1 mph /  3.4 km/h 89 % 0.0 in /  0 mm meteobridge W/m2
12:19 15.8 °F /  -9 °C 13.6 °F /  -10.2 °C 1008.0 in /  34130.9 hPa South 4.0 mph /  6.4 km/h 4.0 mph /  6.4 km/h 87 % 0.0 in /  0 mm meteobridge W/m2
12:25 15.2 °F /  -9.3 °C 12.9 °F /  -10.6 °C 1008.0 in /  34130.9 hPa SSE 3.2 mph /  5.1 km/h 6.4 mph /  10.3 km/h 86 % 0.0 in /  0 mm meteobridge W/m2
12:31 15.3 °F /  -9.3 °C 12.8 °F /  -10.7 °C 1008.0 in /  34130.9 hPa South 5.5 mph /  8.9 km/h 5.5 mph /  8.9 km/h 85 % 0.0 in /  0 mm meteobridge W/m2
12:37 15.2 °F /  -9.3 °C 12.7 °F /  -10.7 °C 1008.0 in /  34130.9 hPa South 3.2 mph /  5.1 km/h 3.2 mph /  5.1 km/h 85 % 0.0 in /  0 mm meteobridge W/m2
12:43 15.1 °F /  -9.4 °C 12.4 °F /  -10.9 °C 1008.0 in /  34130.9 hPa WNW 2.6 mph /  4.2 km/h 2.6 mph /  4.2 km/h 84 % 0.0 in /  0 mm meteobridge W/m2
12:55 15.2 °F /  -9.3 °C 12.5 °F /  -10.8 °C 1007.0 in /  34097 hPa SSE 3.5 mph /  5.6 km/h 3.5 mph /  5.6 km/h 84 % 0.0 in /  0 mm meteobridge W/m2
13:01 15.2 °F /  -9.3 °C 12.5 °F /  -10.8 °C 1007.0 in /  34097 hPa Calm     84 % 0.0 in /  0 mm meteobridge W/m2
13:07 15.2 °F /  -9.3 °C 12.5 °F /  -10.8 °C 1007.0 in /  34097 hPa South 5.5 mph /  8.9 km/h 5.5 mph /  8.9 km/h 84 % 0.0 in /  0 mm meteobridge W/m2
13:19 15.3 °F /  -9.3 °C 12.4 °F /  -10.9 °C 1007.0 in /  34097 hPa South 4.3 mph /  6.9 km/h 4.3 mph /  6.9 km/h 83 % 0.0 in /  0 mm meteobridge W/m2
13:25 15.4 °F /  -9.2 °C 12.5 °F /  -10.8 °C 1007.0 in /  34097 hPa WNW 3.5 mph /  5.6 km/h 3.5 mph /  5.6 km/h 83 % 0.0 in /  0 mm meteobridge W/m2
13:31 15.6 °F /  -9.1 °C 12.7 °F /  -10.7 °C 1007.0 in /  34097 hPa WSW 5.8 mph /  9.3 km/h 5.8 mph /  9.3 km/h 83 % 0.0 in /  0 mm meteobridge W/m2
13:37 15.4 °F /  -9.2 °C 12.5 °F /  -10.8 °C 1007.0 in /  34097 hPa West 2.6 mph /  4.2 km/h 2.6 mph /  4.2 km/h 83 % 0.0 in /  0 mm meteobridge W/m2
13:43 15.4 °F /  -9.2 °C 12.7 °F /  -10.7 °C 1007.0 in /  34097 hPa SSW 3.2 mph /  5.1 km/h 3.2 mph /  5.1 km/h 84 % 0.0 in /  0 mm meteobridge W/m2
13:49 15.2 °F /  -9.3 °C 12.5 °F /  -10.8 °C 1007.0 in /  34097 hPa Calm     84 % 0.0 in /  0 mm meteobridge W/m2
13:55 15.1 °F /  -9.4 °C 12.4 °F /  -10.9 °C 1007.0 in /  34097 hPa SE 8.7 mph /  14 km/h 8.7 mph /  14 km/h 84 % 0.0 in /  0 mm meteobridge W/m2
14:01 14.9 °F /  -9.5 °C 12.2 °F /  -11 °C 1007.0 in /  34097 hPa SSW 5.0 mph /  8 km/h 6.9 mph /  11.1 km/h 84 % 0.0 in /  0 mm meteobridge W/m2
14:07 14.9 °F /  -9.5 °C 12.2 °F /  -11 °C 1007.0 in /  34097 hPa SSW 3.5 mph /  5.6 km/h 5.5 mph /  8.9 km/h 84 % 0.0 in /  0 mm meteobridge W/m2
14:13 14.8 °F /  -9.6 °C 12.3 °F /  -10.9 °C 1008.0 in /  34130.9 hPa WNW 5.0 mph /  8 km/h 5.0 mph /  8 km/h 85 % 0.0 in /  0 mm meteobridge W/m2
14:19 14.7 °F /  -9.6 °C 12.4 °F /  -10.9 °C 1008.0 in /  34130.9 hPa South 4.0 mph /  6.4 km/h 4.0 mph /  6.4 km/h 86 % 0.0 in /  0 mm meteobridge W/m2
14:25 14.7 °F /  -9.6 °C 12.4 °F /  -10.9 °C 1007.0 in /  34097 hPa SSE 2.1 mph /  3.4 km/h 2.1 mph /  3.4 km/h 86 % 0.0 in /  0 mm meteobridge W/m2
14:31 14.5 °F /  -9.7 °C 12.4 °F /  -10.9 °C 1007.0 in /  34097 hPa South 2.1 mph /  3.4 km/h 2.1 mph /  3.4 km/h 87 % 0.0 in /  0 mm meteobridge W/m2
14:37 14.4 °F /  -9.8 °C 12.6 °F /  -10.8 °C 1007.0 in /  34097 hPa SSE 4.7 mph /  7.6 km/h 4.7 mph /  7.6 km/h 89 % 0.0 in /  0 mm meteobridge W/m2
14:43 14.3 °F /  -9.8 °C 12.5 °F /  -10.8 °C 1007.0 in /  34097 hPa SSW 2.6 mph /  4.2 km/h 2.6 mph /  4.2 km/h 89 % 0.0 in /  0 mm meteobridge W/m2
14:49 14.3 °F /  -9.8 °C 12.5 °F /  -10.8 °C 1007.0 in /  34097 hPa SSW 3.2 mph /  5.1 km/h 3.2 mph /  5.1 km/h 89 % 0.0 in /  0 mm meteobridge W/m2
14:55 14.0 °F /  -10 °C 12.6 °F /  -10.8 °C 1008.0 in /  34130.9 hPa SSE 1.8 mph /  2.9 km/h 1.8 mph /  2.9 km/h 91 % 0.0 in /  0 mm meteobridge W/m2
15:01 13.9 °F /  -10.1 °C 12.5 °F /  -10.8 °C 1008.0 in /  34130.9 hPa South 6.4 mph /  10.3 km/h 6.4 mph /  10.3 km/h 91 % 0.0 in /  0 mm meteobridge W/m2
15:09 13.7 °F /  -10.2 °C 12.3 °F /  -10.9 °C -3386.0 in /  -114650 hPa South 11.1 mph /  17.9 km/h 11.1 mph /  17.9 km/h 91 % 0.0 in /  0 mm meteobridge W/m2
15:16 13.3 °F /  -10.4 °C 11.9 °F /  -11.2 °C 1008.0 in /  34130.9 hPa SSE 4.0 mph /  6.4 km/h 4.0 mph /  6.4 km/h 91 % 0.0 in /  0 mm meteobridge W/m2
15:22 13.1 °F /  -10.5 °C 11.8 °F /  -11.2 °C 1008.0 in /  34130.9 hPa SSW 2.6 mph /  4.2 km/h 2.6 mph /  4.2 km/h 92 % 0.0 in /  0 mm meteobridge W/m2
15:28 12.9 °F /  -10.6 °C 11.8 °F /  -11.2 °C 1009.0 in /  34164.7 hPa Calm   -1607.4 mph /  -2586.8 km/h 93 % 0.0 in /  0 mm meteobridge W/m2
15:34 12.9 °F /  -10.6 °C 12.0 °F /  -11.1 °C 1009.0 in /  34164.7 hPa SSE 6.9 mph /  11.1 km/h 6.9 mph /  11.1 km/h 94 % 0.0 in /  0 mm meteobridge W/m2
15:40 12.8 °F /  -10.7 °C 11.9 °F /  -11.2 °C 1008.0 in /  34130.9 hPa West 6.9 mph /  11.1 km/h 6.9 mph /  11.1 km/h 94 % 0.0 in /  0 mm meteobridge W/m2
15:46 12.8 °F /  -10.7 °C 12.0 °F /  -11.1 °C 1008.0 in /  34130.9 hPa SSW 1.4 mph /  2.3 km/h 1.4 mph /  2.3 km/h 95 % 0.0 in /  0 mm meteobridge W/m2
15:52 12.9 °F /  -10.6 °C 12.1 °F /  -11.1 °C 1008.0 in /  34130.9 hPa SSW 2.6 mph /  4.2 km/h 2.6 mph /  4.2 km/h 95 % 0.0 in /  0 mm meteobridge W/m2
15:58 12.9 °F /  -10.6 °C 12.1 °F /  -11.1 °C 1009.0 in /  34164.7 hPa SSE 4.7 mph /  7.6 km/h 4.7 mph /  7.6 km/h 95 % 0.0 in /  0 mm meteobridge W/m2
16:04 13.0 °F /  -10.6 °C 12.2 °F /  -11 °C 1009.0 in /  34164.7 hPa WSW 6.1 mph /  9.8 km/h 13.7 mph /  22 km/h 95 % 0.0 in /  0 mm meteobridge W/m2
16:10 13.0 °F /  -10.6 °C 12.2 °F /  -11 °C 1009.0 in /  34164.7 hPa SSW 5.8 mph /  9.3 km/h 9.0 mph /  14.5 km/h 95 % 0.0 in /  0 mm meteobridge W/m2
16:16 12.8 °F /  -10.7 °C 11.7 °F /  -11.3 °C 1009.0 in /  34164.7 hPa NNE 5.8 mph /  9.3 km/h 5.8 mph /  9.3 km/h 93 % 0.0 in /  0 mm meteobridge W/m2
16:22 12.7 °F /  -10.7 °C 11.6 °F /  -11.3 °C 1009.0 in /  34164.7 hPa SSW 5.5 mph /  8.9 km/h 5.5 mph /  8.9 km/h 93 % 0.0 in /  0 mm meteobridge W/m2
16:28 12.6 °F /  -10.8 °C 11.5 °F /  -11.4 °C 1009.0 in /  34164.7 hPa SSW 1.8 mph /  2.9 km/h 1.8 mph /  2.9 km/h 93 % 0.0 in /  0 mm meteobridge W/m2
16:34 12.6 °F /  -10.8 °C 11.5 °F /  -11.4 °C 1009.0 in /  34164.7 hPa SSW 1.8 mph /  2.9 km/h 1.8 mph /  2.9 km/h 93 % 0.0 in /  0 mm meteobridge W/m2
16:40 12.4 °F /  -10.9 °C 11.5 °F /  -11.4 °C 1010.0 in /  34198.6 hPa SSE 5.8 mph /  9.3 km/h 5.8 mph /  9.3 km/h 94 % 0.0 in /  0 mm meteobridge W/m2
16:46 12.3 °F /  -10.9 °C 11.4 °F /  -11.4 °C 1010.0 in /  34198.6 hPa NNW 7.2 mph /  11.6 km/h 7.2 mph /  11.6 km/h 94 % 0.0 in /  0 mm meteobridge W/m2
16:52 12.2 °F /  -11 °C 11.3 °F /  -11.5 °C 1010.0 in /  34198.6 hPa Calm     94 % 0.0 in /  0 mm meteobridge W/m2
16:58 12.2 °F /  -11 °C 11.3 °F /  -11.5 °C 1010.0 in /  34198.6 hPa SSW 4.0 mph /  6.4 km/h 4.0 mph /  6.4 km/h 94 % 0.0 in /  0 mm meteobridge W/m2
17:04 12.2 °F /  -11 °C 11.3 °F /  -11.5 °C 1010.0 in /  34198.6 hPa South 5.0 mph /  8 km/h 5.0 mph /  8 km/h 94 % 0.0 in /  0 mm meteobridge W/m2
17:10 12.1 °F /  -11.1 °C 11.2 °F /  -11.6 °C 1010.0 in /  34198.6 hPa SSW 2.6 mph /  4.2 km/h 2.6 mph /  4.2 km/h 94 % 0.0 in /  0 mm meteobridge W/m2
17:16 12.1 °F /  -11.1 °C 11.2 °F /  -11.6 °C 1010.0 in /  34198.6 hPa SSE 2.1 mph /  3.4 km/h 2.1 mph /  3.4 km/h 94 % 0.0 in /  0 mm meteobridge W/m2
17:23 12.0 °F /  -11.1 °C 11.2 °F /  -11.6 °C 1010.0 in /  34198.6 hPa SSE 2.6 mph /  4.2 km/h 2.6 mph /  4.2 km/h 95 % 0.0 in /  0 mm meteobridge W/m2
17:29 12.0 °F /  -11.1 °C 11.2 °F /  -11.6 °C 1010.0 in /  34198.6 hPa SW 6.1 mph /  9.8 km/h 9.3 mph /  15 km/h 95 % 0.0 in /  0 mm meteobridge W/m2
17:35 12.0 °F /  -11.1 °C 11.1 °F /  -11.6 °C 1010.0 in /  34198.6 hPa SSE 4.3 mph /  6.9 km/h 5.8 mph /  9.3 km/h 94 % 0.0 in /  0 mm meteobridge W/m2
17:41 11.9 °F /  -11.2 °C 11.0 °F /  -11.7 °C 1010.0 in /  34198.6 hPa SW 6.1 mph /  9.8 km/h 6.1 mph /  9.8 km/h 94 % 0.0 in /  0 mm meteobridge W/m2
17:47 11.9 °F /  -11.2 °C 10.8 °F /  -11.8 °C 1010.0 in /  34198.6 hPa SSW 4.3 mph /  6.9 km/h 4.3 mph /  6.9 km/h 93 % 0.0 in /  0 mm meteobridge W/m2
17:53 11.9 °F /  -11.2 °C 10.8 °F /  -11.8 °C 1010.0 in /  34198.6 hPa Calm     93 % 0.0 in /  0 mm meteobridge W/m2
17:59 11.9 °F /  -11.2 °C 11.0 °F /  -11.7 °C 1010.0 in /  34198.6 hPa SSE 3.2 mph /  5.1 km/h 3.2 mph /  5.1 km/h 94 % 0.0 in /  0 mm meteobridge W/m2
18:05 11.9 °F /  -11.2 °C 11.0 °F /  -11.7 °C 1010.0 in /  34198.6 hPa West 6.4 mph /  10.3 km/h 6.4 mph /  10.3 km/h 94 % 0.0 in /  0 mm meteobridge W/m2
18:11 11.8 °F /  -11.2 °C 10.7 °F /  -11.8 °C 1010.7 in /  34222.3 hPa WNW 2.6 mph /  4.2 km/h 4.7 mph /  7.6 km/h 93 % 0.0 in /  0 mm meteobridge W/m2
18:17 11.8 °F /  -11.2 °C 10.7 °F /  -11.8 °C 1010.7 in /  34222.3 hPa SSE 4.7 mph /  7.6 km/h 6.1 mph /  9.8 km/h 93 % 0.0 in /  0 mm meteobridge W/m2
18:23 11.8 °F /  -11.2 °C 10.7 °F /  -11.8 °C 1010.7 in /  34222.3 hPa SSE 6.1 mph /  9.8 km/h 6.1 mph /  9.8 km/h 93 % 0.0 in /  0 mm meteobridge W/m2
18:29 11.8 °F /  -11.2 °C 10.7 °F /  -11.8 °C 1010.0 in /  34198.6 hPa South 5.8 mph /  9.3 km/h 5.8 mph /  9.3 km/h 93 % 0.0 in /  0 mm meteobridge W/m2
18:35 11.8 °F /  -11.2 °C 10.7 °F /  -11.8 °C 1010.0 in /  34198.6 hPa SSW 2.1 mph /  3.4 km/h 5.0 mph /  8 km/h 93 % 0.0 in /  0 mm meteobridge W/m2
18:47 11.7 °F /  -11.3 °C 10.6 °F /  -11.9 °C 1010.0 in /  34198.6 hPa South 8.7 mph /  14 km/h 8.7 mph /  14 km/h 93 % 0.0 in /  0 mm meteobridge W/m2
18:53 11.6 °F /  -11.3 °C 10.5 °F /  -11.9 °C 1010.0 in /  34198.6 hPa Calm     93 % 0.0 in /  0 mm meteobridge W/m2
18:59 11.6 °F /  -11.3 °C 10.5 °F /  -11.9 °C 1010.0 in /  34198.6 hPa Calm   -1607.4 mph /  -2586.8 km/h 93 % 0.0 in /  0 mm meteobridge W/m2
20:23 11.3 °F /  -11.5 °C 10.0 °F /  -12.2 °C 1010.7 in /  34222.3 hPa SSW 3.2 mph /  5.1 km/h 3.2 mph /  5.1 km/h 92 % 0.0 in /  0 mm meteobridge W/m2
20:29 11.2 °F /  -11.6 °C 9.9 °F /  -12.3 °C 1010.7 in /  34222.3 hPa SSW 1.8 mph /  2.9 km/h 1.8 mph /  2.9 km/h 92 % 0.0 in /  0 mm meteobridge W/m2
20:35 11.3 °F /  -11.5 °C 10.0 °F /  -12.2 °C 1010.7 in /  34222.3 hPa SSW 2.1 mph /  3.4 km/h 2.1 mph /  3.4 km/h 92 % 0.0 in /  0 mm meteobridge W/m2
20:41 11.3 °F /  -11.5 °C 10.0 °F /  -12.2 °C 1010.7 in /  34222.3 hPa SSE 9.7 mph /  15.6 km/h 9.7 mph /  15.6 km/h 92 % 0.0 in /  0 mm meteobridge W/m2
20:47 11.2 °F /  -11.6 °C 9.9 °F /  -12.3 °C 1010.7 in /  34222.3 hPa SSW 4.7 mph /  7.6 km/h 4.7 mph /  7.6 km/h 92 % 0.0 in /  0 mm meteobridge W/m2
20:53 11.1 °F /  -11.6 °C 9.8 °F /  -12.3 °C 1010.7 in /  34222.3 hPa SW 9.7 mph /  15.6 km/h 9.7 mph /  15.6 km/h 92 % 0.0 in /  0 mm meteobridge W/m2
20:59 11.1 °F /  -11.6 °C 9.8 °F /  -12.3 °C 1010.7 in /  34222.3 hPa Calm   7.6 mph /  12.2 km/h 92 % 0.0 in /  0 mm meteobridge W/m2
21:06 11.1 °F /  -11.6 °C 9.8 °F /  -12.3 °C 1010.7 in /  34222.3 hPa Calm   -1607.4 mph /  -2586.8 km/h 92 % 0.0 in /  0 mm meteobridge W/m2
21:13 11.1 °F /  -11.6 °C 9.8 °F /  -12.3 °C 1010.7 in /  34222.3 hPa SSE 1.8 mph /  2.9 km/h 1.8 mph /  2.9 km/h 92 % 0.0 in /  0 mm meteobridge W/m2
21:19 10.8 °F /  -11.8 °C 9.7 °F /  -12.4 °C 1010.7 in /  34222.3 hPa SSW 4.7 mph /  7.6 km/h 4.7 mph /  7.6 km/h 93 % 0.0 in /  0 mm meteobridge W/m2
21:25 10.8 °F /  -11.8 °C 9.7 °F /  -12.4 °C 1010.7 in /  34222.3 hPa SSW 7.6 mph /  12.2 km/h 7.6 mph /  12.2 km/h 93 % 0.0 in /  0 mm meteobridge W/m2
21:31 10.6 °F /  -11.9 °C 9.5 °F /  -12.5 °C 1010.7 in /  34222.3 hPa South 2.1 mph /  3.4 km/h 2.1 mph /  3.4 km/h 93 % 0.0 in /  0 mm meteobridge W/m2
21:37 10.6 °F /  -11.9 °C 9.5 °F /  -12.5 °C 1010.7 in /  34222.3 hPa SW 1.8 mph /  2.9 km/h 1.8 mph /  2.9 km/h 93 % 0.0 in /  0 mm meteobridge W/m2
21:43 10.5 °F /  -11.9 °C 9.4 °F /  -12.6 °C 1010.7 in /  34222.3 hPa SSE 2.6 mph /  4.2 km/h 2.6 mph /  4.2 km/h 93 % 0.0 in /  0 mm meteobridge W/m2
21:49 10.4 °F /  -12 °C 9.3 °F /  -12.6 °C 1010.7 in /  34222.3 hPa Calm   2.6 mph /  4.2 km/h 93 % 0.0 in /  0 mm meteobridge W/m2
21:55 10.3 °F /  -12.1 °C 9.4 °F /  -12.6 °C 1011.7 in /  34256.2 hPa SSW 5.8 mph /  9.3 km/h 5.8 mph /  9.3 km/h 94 % 0.0 in /  0 mm meteobridge W/m2
22:01 10.3 °F /  -12.1 °C 9.4 °F /  -12.6 °C 1011.7 in /  34256.2 hPa NNE 1.4 mph /  2.3 km/h 1.4 mph /  2.3 km/h 94 % 0.0 in /  0 mm meteobridge W/m2
22:07 10.3 °F /  -12.1 °C 9.4 °F /  -12.6 °C 1011.7 in /  34256.2 hPa SE 5.8 mph /  9.3 km/h 5.8 mph /  9.3 km/h 94 % 0.0 in /  0 mm meteobridge W/m2
22:13 10.3 °F /  -12.1 °C 9.4 °F /  -12.6 °C 1011.7 in /  34256.2 hPa Calm   1.8 mph /  2.9 km/h 94 % 0.0 in /  0 mm meteobridge W/m2
22:19 10.3 °F /  -12.1 °C 9.4 °F /  -12.6 °C 1011.7 in /  34256.2 hPa SSE 3.2 mph /  5.1 km/h 3.2 mph /  5.1 km/h 94 % 0.0 in /  0 mm meteobridge W/m2
22:25 10.2 °F /  -12.1 °C 9.3 °F /  -12.6 °C 1011.7 in /  34256.2 hPa SSW 3.5 mph /  5.6 km/h 3.5 mph /  5.6 km/h 94 % 0.0 in /  0 mm meteobridge W/m2
22:31 10.2 °F /  -12.1 °C 9.3 °F /  -12.6 °C 1011.7 in /  34256.2 hPa SSE 5.5 mph /  8.9 km/h 5.5 mph /  8.9 km/h 94 % 0.0 in /  0 mm meteobridge W/m2
22:36 10.2 °F /  -12.1 °C 9.4 °F /  -12.6 °C 1011.7 in /  34256.2 hPa Calm   5.0 mph /  8 km/h 95 % 0.0 in /  0 mm meteobridge W/m2
22:42 10.2 °F /  -12.1 °C 9.4 °F /  -12.6 °C 1011.7 in /  34256.2 hPa Calm   1.4 mph /  2.3 km/h 95 % 0.0 in /  0 mm meteobridge W/m2
22:49 10.1 °F /  -12.2 °C 9.3 °F /  -12.6 °C 1011.7 in /  34256.2 hPa Calm     95 % 0.0 in /  0 mm meteobridge W/m2
22:55 10.1 °F /  -12.2 °C 9.3 °F /  -12.6 °C 1011.7 in /  34256.2 hPa NNW 1.8 mph /  2.9 km/h 6.4 mph /  10.3 km/h 95 % 0.0 in /  0 mm meteobridge W/m2
23:01 10.0 °F /  -12.2 °C 9.2 °F /  -12.7 °C 1011.7 in /  34256.2 hPa SE 4.3 mph /  6.9 km/h 4.3 mph /  6.9 km/h 95 % 0.0 in /  0 mm meteobridge W/m2
23:07 10.0 °F /  -12.2 °C 9.2 °F /  -12.7 °C 1011.7 in /  34256.2 hPa SSE 5.0 mph /  8 km/h 5.0 mph /  8 km/h 95 % 0.0 in /  0 mm meteobridge W/m2
23:13 10.0 °F /  -12.2 °C 9.2 °F /  -12.7 °C 1011.7 in /  34256.2 hPa SSE 5.0 mph /  8 km/h 5.0 mph /  8 km/h 95 % 0.0 in /  0 mm meteobridge W/m2
23:32 10.1 °F /  -12.2 °C 9.2 °F /  -12.7 °C 1011.7 in /  34256.2 hPa SW 3.5 mph /  5.6 km/h 3.5 mph /  5.6 km/h 94 % 0.0 in /  0 mm meteobridge W/m2
23:38 10.1 °F /  -12.2 °C 9.2 °F /  -12.7 °C 1011.7 in /  34256.2 hPa Calm     94 % 0.0 in /  0 mm meteobridge W/m2
23:45 10.1 °F /  -12.2 °C 9.2 °F /  -12.7 °C 1011.7 in /  34256.2 hPa SSW 4.0 mph /  6.4 km/h 4.0 mph /  6.4 km/h 94 % 0.0 in /  0 mm meteobridge W/m2
23:51 10.0 °F /  -12.2 °C 9.1 °F /  -12.7 °C 1011.7 in /  34256.2 hPa SSW 2.6 mph /  4.2 km/h 4.7 mph /  7.6 km/h 94 % 0.0 in /  0 mm meteobridge W/m2
23:56 10.0 °F /  -12.2 °C 9.1 °F /  -12.7 °C 1011.7 in /  34256.2 hPa SSE 5.8 mph /  9.3 km/h 5.8 mph /  9.3 km/h 94 % 0.0 in /  0 mm meteobridge W/m2
Juneau County Weather
Compliments of Weather Underground - 2.25 mb